createdAt,value
2018-07-06T00:00:59.192Z,990.2
2018-07-06T00:01:59.196Z,990.23
2018-07-06T00:02:59.193Z,990.19
2018-07-06T00:03:59.196Z,990.25
2018-07-06T00:04:59.201Z,990.21
2018-07-06T00:05:59.204Z,990.23
2018-07-06T00:06:59.201Z,990.25
2018-07-06T00:07:59.203Z,990.27
2018-07-06T00:08:59.204Z,990.27
2018-07-06T00:09:59.205Z,990.29
2018-07-06T00:10:59.231Z,990.27
2018-07-06T00:11:59.208Z,990.27
2018-07-06T00:12:59.209Z,990.26
2018-07-06T00:13:59.212Z,990.31
2018-07-06T00:14:59.210Z,990.29
2018-07-06T00:15:59.211Z,990.28
2018-07-06T00:16:59.212Z,990.29
2018-07-06T00:17:59.223Z,990.3
2018-07-06T00:18:59.215Z,990.29
2018-07-06T00:19:59.263Z,990.27
2018-07-06T00:20:59.217Z,990.28
2018-07-06T00:21:59.217Z,990.25
2018-07-06T00:22:59.221Z,990.3
2018-07-06T00:23:59.234Z,990.26
2018-07-06T00:24:59.222Z,990.26
2018-07-06T00:25:59.226Z,990.26
2018-07-06T00:27:00.288Z,990.29
2018-07-06T00:27:59.231Z,990.28
2018-07-06T00:28:59.228Z,990.25
2018-07-06T00:29:59.230Z,990.26
2018-07-06T00:30:59.233Z,990.27
2018-07-06T00:31:59.232Z,990.22
2018-07-06T00:32:59.234Z,990.2
2018-07-06T00:33:59.237Z,990.26
2018-07-06T00:34:59.239Z,990.24
2018-07-06T00:35:59.239Z,990.25
2018-07-06T00:36:59.242Z,990.24
2018-07-06T00:37:59.241Z,990.23
2018-07-06T00:38:59.239Z,990.27
2018-07-06T00:39:59.255Z,990.26
2018-07-06T00:40:59.243Z,990.28
2018-07-06T00:41:59.246Z,990.28
2018-07-06T00:42:59.247Z,990.28
2018-07-06T00:43:59.254Z,990.26
2018-07-06T00:44:59.249Z,990.25
2018-07-06T00:45:59.250Z,990.27
2018-07-06T00:46:59.260Z,990.27
2018-07-06T00:47:59.252Z,990.3
2018-07-06T00:48:59.263Z,990.31
2018-07-06T00:49:59.255Z,990.33
2018-07-06T00:50:59.258Z,990.34
2018-07-06T00:51:59.258Z,990.34
2018-07-06T00:52:59.257Z,990.39
2018-07-06T00:53:59.262Z,990.39
2018-07-06T00:54:59.263Z,990.41
2018-07-06T00:55:59.261Z,990.45
2018-07-06T00:56:59.264Z,990.44
2018-07-06T00:57:59.266Z,990.43
2018-07-06T00:58:59.265Z,990.44
2018-07-06T00:59:59.271Z,990.42
2018-07-06T01:00:59.269Z,990.44
2018-07-06T01:01:59.311Z,990.43
2018-07-06T01:02:59.276Z,990.41
2018-07-06T01:03:59.280Z,990.44
2018-07-06T01:04:59.275Z,990.39
2018-07-06T01:05:59.277Z,990.43
2018-07-06T01:06:59.278Z,990.41
2018-07-06T01:07:59.280Z,990.44
2018-07-06T01:08:59.280Z,990.39
2018-07-06T01:09:59.279Z,990.41
2018-07-06T01:10:59.282Z,990.42
2018-07-06T01:11:59.283Z,990.4
2018-07-06T01:12:59.285Z,990.41
2018-07-06T01:13:59.287Z,990.45
2018-07-06T01:14:59.287Z,990.45
2018-07-06T01:15:59.290Z,990.43
2018-07-06T01:16:59.294Z,990.44
2018-07-06T01:17:59.291Z,990.43
2018-07-06T01:18:59.292Z,990.41
2018-07-06T01:19:59.295Z,990.43
2018-07-06T01:20:59.298Z,990.44
2018-07-06T01:21:59.297Z,990.43
2018-07-06T01:22:59.300Z,990.41
2018-07-06T01:23:59.299Z,990.46
2018-07-06T01:24:59.301Z,990.41
2018-07-06T01:25:59.301Z,990.44
2018-07-06T01:26:59.302Z,990.4
2018-07-06T01:27:59.303Z,990.43
2018-07-06T01:28:59.305Z,990.4
2018-07-06T01:29:59.304Z,990.4
2018-07-06T01:30:59.309Z,990.44
2018-07-06T01:31:59.309Z,990.44
2018-07-06T01:32:59.309Z,990.43
2018-07-06T01:33:59.311Z,990.41
2018-07-06T01:34:59.310Z,990.41
2018-07-06T01:35:59.316Z,990.4
2018-07-06T01:36:59.315Z,990.42
2018-07-06T01:37:59.316Z,990.4
2018-07-06T01:38:59.317Z,990.39
2018-07-06T01:39:59.317Z,990.4
2018-07-06T01:40:59.319Z,990.4
2018-07-06T01:41:59.337Z,990.4
2018-07-06T01:42:59.323Z,990.41
2018-07-06T01:43:59.324Z,990.4
2018-07-06T01:44:59.326Z,990.41
2018-07-06T01:45:59.324Z,990.36
2018-07-06T01:46:59.328Z,990.37
2018-07-06T01:47:59.330Z,990.4
2018-07-06T01:48:59.331Z,990.4
2018-07-06T01:49:59.329Z,990.34
2018-07-06T01:50:59.331Z,990.4
2018-07-06T01:51:59.332Z,990.37
2018-07-06T01:52:59.335Z,990.32
2018-07-06T01:53:59.336Z,990.31
2018-07-06T01:54:59.337Z,990.31
2018-07-06T01:55:59.338Z,990.32
2018-07-06T01:56:59.340Z,990.33
2018-07-06T01:57:59.338Z,990.34
2018-07-06T01:58:59.342Z,990.27
2018-07-06T01:59:59.340Z,990.28
2018-07-06T02:00:59.348Z,990.31
2018-07-06T02:01:59.345Z,990.3
2018-07-06T02:02:59.344Z,990.28
2018-07-06T02:03:59.344Z,990.33
2018-07-06T02:04:59.344Z,990.29
2018-07-06T02:05:59.354Z,990.31
2018-07-06T02:06:59.347Z,990.3
2018-07-06T02:07:59.348Z,990.32
2018-07-06T02:08:59.349Z,990.33
2018-07-06T02:09:59.358Z,990.33
2018-07-06T02:10:59.357Z,990.3
2018-07-06T02:11:59.354Z,990.32
2018-07-06T02:12:59.353Z,990.3
2018-07-06T02:13:59.353Z,990.3
2018-07-06T02:14:59.355Z,990.29
2018-07-06T02:15:59.357Z,990.3
2018-07-06T02:16:59.358Z,990.31
2018-07-06T02:17:59.360Z,990.34
2018-07-06T02:18:59.359Z,990.33
2018-07-06T02:19:59.361Z,990.32
2018-07-06T02:20:59.362Z,990.27
2018-07-06T02:21:59.361Z,990.29
2018-07-06T02:22:59.363Z,990.26
2018-07-06T02:23:59.366Z,990.26
2018-07-06T02:24:59.362Z,990.29
2018-07-06T02:25:59.381Z,990.24
2018-07-06T02:26:59.367Z,990.26
2018-07-06T02:27:59.368Z,990.29
2018-07-06T02:28:59.371Z,990.28
2018-07-06T02:29:59.371Z,990.28
2018-07-06T02:30:59.373Z,990.25
2018-07-06T02:31:59.375Z,990.22
2018-07-06T02:32:59.371Z,990.25
2018-07-06T02:33:59.374Z,990.23
2018-07-06T02:34:59.385Z,990.23
2018-07-06T02:35:59.376Z,990.26
2018-07-06T02:36:59.400Z,990.27
2018-07-06T02:37:59.377Z,990.26
2018-07-06T02:38:59.380Z,990.23
2018-07-06T02:39:59.378Z,990.26
2018-07-06T02:40:59.382Z,990.28
2018-07-06T02:41:59.383Z,990.25
2018-07-06T02:42:59.381Z,990.25
2018-07-06T02:43:59.385Z,990.28
2018-07-06T02:44:59.384Z,990.3
2018-07-06T02:45:59.386Z,990.28
2018-07-06T02:46:59.389Z,990.28
2018-07-06T02:47:59.398Z,990.28
2018-07-06T02:48:59.392Z,990.27
2018-07-06T02:49:59.388Z,990.32
2018-07-06T02:50:59.390Z,990.32
2018-07-06T02:51:59.389Z,990.35
2018-07-06T02:52:59.390Z,990.3
2018-07-06T02:53:59.393Z,990.31
2018-07-06T02:54:59.399Z,990.33
2018-07-06T02:55:59.396Z,990.29
2018-07-06T02:56:59.394Z,990.29
2018-07-06T02:57:59.395Z,990.28
2018-07-06T02:58:59.400Z,990.32
2018-07-06T02:59:59.398Z,990.28
2018-07-06T03:00:59.401Z,990.35
2018-07-06T03:01:59.410Z,990.29
2018-07-06T03:02:59.397Z,990.3
2018-07-06T03:03:59.405Z,990.33
2018-07-06T03:04:59.401Z,990.29
2018-07-06T03:05:59.401Z,990.29
2018-07-06T03:06:59.406Z,990.3
2018-07-06T03:07:59.404Z,990.33
2018-07-06T03:08:59.406Z,990.31
2018-07-06T03:09:59.404Z,990.3
2018-07-06T03:10:59.406Z,990.34
2018-07-06T03:11:59.423Z,990.35
2018-07-06T03:12:59.411Z,990.33
2018-07-06T03:13:59.410Z,990.35
2018-07-06T03:14:59.409Z,990.33
2018-07-06T03:15:59.408Z,990.35
2018-07-06T03:16:59.426Z,990.33
2018-07-06T03:17:59.410Z,990.34
2018-07-06T03:18:59.418Z,990.32
2018-07-06T03:19:59.411Z,990.32
2018-07-06T03:20:59.416Z,990.29
2018-07-06T03:21:59.413Z,990.29
2018-07-06T03:22:59.434Z,990.34
2018-07-06T03:23:59.417Z,990.28
2018-07-06T03:24:59.418Z,990.3
2018-07-06T03:25:59.418Z,990.31
2018-07-06T03:26:59.418Z,990.31
2018-07-06T03:27:59.637Z,990.34
2018-07-06T03:28:59.420Z,990.32
2018-07-06T03:29:59.444Z,990.31
2018-07-06T03:30:59.423Z,990.3
2018-07-06T03:31:59.421Z,990.32
2018-07-06T03:32:59.424Z,990.36
2018-07-06T03:33:59.425Z,990.38
2018-07-06T03:34:59.429Z,990.39
2018-07-06T03:35:59.427Z,990.4
2018-07-06T03:36:59.427Z,990.4
2018-07-06T03:37:59.429Z,990.39
2018-07-06T03:38:59.432Z,990.37
2018-07-06T03:39:59.430Z,990.36
2018-07-06T03:40:59.434Z,990.41
2018-07-06T03:41:59.432Z,990.41
2018-07-06T03:42:59.430Z,990.36
2018-07-06T03:43:59.435Z,990.4
2018-07-06T03:44:59.448Z,990.4
2018-07-06T03:45:59.445Z,990.44
2018-07-06T03:46:59.439Z,990.42
2018-07-06T03:47:59.452Z,990.45
2018-07-06T03:48:59.441Z,990.45
2018-07-06T03:49:59.444Z,990.45
2018-07-06T03:50:59.440Z,990.49
2018-07-06T03:51:59.447Z,990.47
2018-07-06T03:52:59.446Z,990.49
2018-07-06T03:53:59.445Z,990.48
2018-07-06T03:54:59.475Z,990.46
2018-07-06T03:55:59.453Z,990.49
2018-07-06T03:56:59.458Z,990.5
2018-07-06T03:57:59.453Z,990.5
2018-07-06T03:58:59.471Z,990.54
2018-07-06T03:59:59.456Z,990.54
2018-07-06T04:00:59.482Z,990.55
2018-07-06T04:01:59.469Z,990.55
2018-07-06T04:02:59.466Z,990.59
2018-07-06T04:03:59.463Z,990.56
2018-07-06T04:04:59.456Z,990.6
2018-07-06T04:05:59.459Z,990.61
2018-07-06T04:06:59.460Z,990.62
2018-07-06T04:07:59.465Z,990.63
2018-07-06T04:08:59.461Z,990.65
2018-07-06T04:09:59.461Z,990.65
2018-07-06T04:10:59.464Z,990.65
2018-07-06T04:11:59.470Z,990.58
2018-07-06T04:12:59.465Z,990.62
2018-07-06T04:13:59.473Z,990.65
2018-07-06T04:14:59.467Z,990.66
2018-07-06T04:15:59.508Z,990.68
2018-07-06T04:16:59.470Z,990.71
2018-07-06T04:17:59.493Z,990.71
2018-07-06T04:18:59.472Z,990.75
2018-07-06T04:19:59.474Z,990.71
2018-07-06T04:20:59.478Z,990.74
2018-07-06T04:21:59.474Z,990.73
2018-07-06T04:22:59.475Z,990.69
2018-07-06T04:23:59.479Z,990.68
2018-07-06T04:24:59.487Z,990.7
2018-07-06T04:25:59.477Z,990.72
2018-07-06T04:26:59.479Z,990.7
2018-07-06T04:28:00.279Z,990.67
2018-07-06T04:28:59.480Z,990.74
2018-07-06T04:29:59.481Z,990.71
2018-07-06T04:30:59.480Z,990.74
2018-07-06T04:31:59.488Z,990.73
2018-07-06T04:32:59.483Z,990.75
2018-07-06T04:33:59.489Z,990.78
2018-07-06T04:34:59.486Z,990.77
2018-07-06T04:35:59.489Z,990.79
2018-07-06T04:36:59.488Z,990.74
2018-07-06T04:37:59.490Z,990.79
2018-07-06T04:38:59.494Z,990.79
2018-07-06T04:39:59.497Z,990.8
2018-07-06T04:40:59.496Z,990.81
2018-07-06T04:41:59.493Z,990.81
2018-07-06T04:42:59.494Z,990.81
2018-07-06T04:43:59.494Z,990.82
2018-07-06T04:44:59.497Z,990.88
2018-07-06T04:45:59.498Z,990.86
2018-07-06T04:46:59.503Z,990.84
2018-07-06T04:47:59.502Z,990.85
2018-07-06T04:48:59.503Z,990.9
2018-07-06T04:49:59.510Z,990.89
2018-07-06T04:50:59.513Z,990.9
2018-07-06T04:51:59.508Z,990.9
2018-07-06T04:52:59.508Z,990.93
2018-07-06T04:53:59.529Z,990.91
2018-07-06T04:54:59.508Z,990.9
2018-07-06T04:55:59.512Z,990.92
2018-07-06T04:56:59.511Z,990.93
2018-07-06T04:57:59.521Z,990.93
2018-07-06T04:58:59.513Z,990.97
2018-07-06T04:59:59.571Z,990.92
2018-07-06T05:00:59.527Z,990.92
2018-07-06T05:01:59.535Z,990.95
2018-07-06T05:02:59.523Z,990.99
2018-07-06T05:03:59.522Z,990.97
2018-07-06T05:04:59.525Z,991.01
2018-07-06T05:05:59.528Z,991
2018-07-06T05:06:59.529Z,991
2018-07-06T05:07:59.527Z,991.02
2018-07-06T05:08:59.530Z,991.01
2018-07-06T05:09:59.534Z,991
2018-07-06T05:10:59.533Z,991
2018-07-06T05:11:59.535Z,991.05
2018-07-06T05:12:59.533Z,991.01
2018-07-06T05:13:59.536Z,991.03
2018-07-06T05:14:59.545Z,991.01
2018-07-06T05:15:59.540Z,991.03
2018-07-06T05:16:59.619Z,991.06
2018-07-06T05:17:59.543Z,991.06
2018-07-06T05:18:59.543Z,991.06
2018-07-06T05:19:59.546Z,991.07
2018-07-06T05:20:59.550Z,991.02
2018-07-06T05:21:59.559Z,991.07
2018-07-06T05:22:59.549Z,991.02
2018-07-06T05:23:59.554Z,991.08
2018-07-06T05:24:59.554Z,991.13
2018-07-06T05:25:59.556Z,991.07
2018-07-06T05:26:59.558Z,991.12
2018-07-06T05:27:59.558Z,991.07
2018-07-06T05:28:59.558Z,991.11
2018-07-06T05:29:59.559Z,991.13
2018-07-06T05:30:59.563Z,991.12
2018-07-06T05:31:59.574Z,991.14
2018-07-06T05:32:59.576Z,991.11
2018-07-06T05:33:59.566Z,991.15
2018-07-06T05:34:59.570Z,991.14
2018-07-06T05:35:59.569Z,991.21
2018-07-06T05:36:59.573Z,991.19
2018-07-06T05:37:59.576Z,991.2
2018-07-06T05:38:59.583Z,991.19
2018-07-06T05:39:59.580Z,991.22
2018-07-06T05:40:59.582Z,991.24
2018-07-06T05:41:59.586Z,991.21
2018-07-06T05:42:59.586Z,991.23
2018-07-06T05:43:59.585Z,991.27
2018-07-06T05:44:59.602Z,991.24
2018-07-06T05:45:59.588Z,991.27
2018-07-06T05:46:59.589Z,991.32
2018-07-06T05:47:59.660Z,991.32
2018-07-06T05:48:59.591Z,991.3
2018-07-06T05:49:59.599Z,991.34
2018-07-06T05:50:59.598Z,991.34
2018-07-06T05:51:59.598Z,991.36
2018-07-06T05:52:59.603Z,991.4
2018-07-06T05:53:59.605Z,991.46
2018-07-06T05:54:59.603Z,991.42
2018-07-06T05:55:59.609Z,991.41
2018-07-06T05:56:59.609Z,991.38
2018-07-06T05:57:59.610Z,991.4
2018-07-06T05:58:59.615Z,991.39
2018-07-06T05:59:59.613Z,991.38
2018-07-06T06:00:59.628Z,991.44
2018-07-06T06:01:59.628Z,991.45
2018-07-06T06:02:59.619Z,991.44
2018-07-06T06:03:59.631Z,991.48
2018-07-06T06:04:59.625Z,991.51
2018-07-06T06:05:59.629Z,991.46
2018-07-06T06:06:59.629Z,991.51
2018-07-06T06:07:59.627Z,991.48
2018-07-06T06:08:59.629Z,991.55
2018-07-06T06:09:59.631Z,991.52
2018-07-06T06:10:59.632Z,991.53
2018-07-06T06:11:59.638Z,991.55
2018-07-06T06:12:59.634Z,991.6
2018-07-06T06:13:59.636Z,991.59
2018-07-06T06:14:59.638Z,991.6
2018-07-06T06:15:59.643Z,991.57
2018-07-06T06:16:59.650Z,991.6
2018-07-06T06:17:59.647Z,991.6
2018-07-06T06:18:59.649Z,991.6
2018-07-06T06:19:59.650Z,991.63
2018-07-06T06:20:59.649Z,991.62
2018-07-06T06:21:59.667Z,991.61
2018-07-06T06:22:59.657Z,991.64
2018-07-06T06:23:59.660Z,991.68
2018-07-06T06:24:59.680Z,991.68
2018-07-06T06:25:59.664Z,991.69
2018-07-06T06:26:59.664Z,991.7
2018-07-06T06:27:59.666Z,991.7
2018-07-06T06:28:59.665Z,991.67
2018-07-06T06:29:59.668Z,991.69
2018-07-06T06:30:59.670Z,991.7
2018-07-06T06:31:59.666Z,991.69
2018-07-06T06:32:59.678Z,991.74
2018-07-06T06:33:59.737Z,991.77
2018-07-06T06:34:59.681Z,991.76
2018-07-06T06:35:59.674Z,991.77
2018-07-06T06:36:59.676Z,991.78
2018-07-06T06:37:59.679Z,991.8
2018-07-06T06:38:59.681Z,991.85
2018-07-06T06:39:59.681Z,991.82
2018-07-06T06:40:59.680Z,991.82
2018-07-06T06:41:59.693Z,991.8
2018-07-06T06:42:59.685Z,991.83
2018-07-06T06:43:59.687Z,991.86
2018-07-06T06:44:59.688Z,991.87
2018-07-06T06:45:59.690Z,991.83
2018-07-06T06:46:59.690Z,991.85
2018-07-06T06:47:59.693Z,991.87
2018-07-06T06:48:59.703Z,991.86
2018-07-06T06:49:59.701Z,991.88
2018-07-06T06:50:59.696Z,991.92
2018-07-06T06:51:59.721Z,991.91
2018-07-06T06:52:59.752Z,991.9
2018-07-06T06:53:59.700Z,991.89
2018-07-06T06:54:59.704Z,991.93
2018-07-06T06:55:59.702Z,991.94
2018-07-06T06:56:59.706Z,991.91
2018-07-06T06:57:59.707Z,991.92
2018-07-06T06:58:59.741Z,991.95
2018-07-06T06:59:59.705Z,991.95
2018-07-06T07:00:59.780Z,991.97
2018-07-06T07:01:59.717Z,991.96
2018-07-06T07:02:59.715Z,992.01
2018-07-06T07:03:59.714Z,992.02
2018-07-06T07:04:59.722Z,991.99
2018-07-06T07:05:59.721Z,992.01
2018-07-06T07:06:59.721Z,992
2018-07-06T07:07:59.773Z,992.01
2018-07-06T07:08:59.720Z,991.99
2018-07-06T07:09:59.723Z,991.98
2018-07-06T07:10:59.721Z,991.98
2018-07-06T07:11:59.722Z,992.03
2018-07-06T07:12:59.731Z,992.02
2018-07-06T07:13:59.764Z,992
2018-07-06T07:14:59.727Z,992
2018-07-06T07:15:59.731Z,992.03
2018-07-06T07:16:59.731Z,992.03
2018-07-06T07:17:59.735Z,992.02
2018-07-06T07:18:59.733Z,992.07
2018-07-06T07:19:59.735Z,992.05
2018-07-06T07:20:59.737Z,992.07
2018-07-06T07:21:59.737Z,992.09
2018-07-06T07:22:59.739Z,992.1
2018-07-06T07:23:59.744Z,992.1
2018-07-06T07:24:59.742Z,992.1
2018-07-06T07:25:59.749Z,992.11
2018-07-06T07:26:59.745Z,992.08
2018-07-06T07:27:59.749Z,992.09
2018-07-06T07:28:59.748Z,992.13
2018-07-06T07:29:59.753Z,992.11
2018-07-06T07:30:59.755Z,992.13
2018-07-06T07:31:59.753Z,992.15
2018-07-06T07:32:59.762Z,992.14
2018-07-06T07:33:59.757Z,992.14
2018-07-06T07:34:59.757Z,992.16
2018-07-06T07:35:59.759Z,992.14
2018-07-06T07:36:59.771Z,992.16
2018-07-06T07:37:59.763Z,992.15
2018-07-06T07:38:59.859Z,992.13
2018-07-06T07:39:59.765Z,992.11
2018-07-06T07:40:59.768Z,992.11
2018-07-06T07:41:59.772Z,992.13
2018-07-06T07:42:59.769Z,992.15
2018-07-06T07:43:59.777Z,992.14
2018-07-06T07:44:59.787Z,992.18
2018-07-06T07:45:59.774Z,992.17
2018-07-06T07:46:59.782Z,992.15
2018-07-06T07:47:59.777Z,992.19
2018-07-06T07:48:59.783Z,992.22
2018-07-06T07:49:59.783Z,992.22
2018-07-06T07:50:59.783Z,992.18
2018-07-06T07:51:59.792Z,992.17
2018-07-06T07:52:59.789Z,992.19
2018-07-06T07:53:59.791Z,992.2
2018-07-06T07:54:59.847Z,992.19
2018-07-06T07:55:59.797Z,992.24
2018-07-06T07:56:59.795Z,992.2
2018-07-06T07:57:59.795Z,992.23
2018-07-06T07:58:59.808Z,992.23
2018-07-06T07:59:59.806Z,992.22
2018-07-06T08:00:59.977Z,992.25
2018-07-06T08:01:59.821Z,992.24
2018-07-06T08:02:59.807Z,992.25
2018-07-06T08:03:59.813Z,992.26
2018-07-06T08:04:59.811Z,992.24
2018-07-06T08:05:59.814Z,992.26
2018-07-06T08:06:59.816Z,992.29
2018-07-06T08:07:59.818Z,992.3
2018-07-06T08:08:59.820Z,992.32
2018-07-06T08:09:59.822Z,992.37
2018-07-06T08:10:59.825Z,992.36
2018-07-06T08:11:59.830Z,992.39
2018-07-06T08:12:59.840Z,992.38
2018-07-06T08:14:04.907Z,992.37
2018-07-06T08:14:59.833Z,992.32
2018-07-06T08:15:59.838Z,992.37
2018-07-06T08:16:59.840Z,992.37
2018-07-06T08:17:59.847Z,992.42
2018-07-06T08:18:59.850Z,992.41
2018-07-06T08:19:59.848Z,992.38
2018-07-06T08:20:59.852Z,992.39
2018-07-06T08:21:59.861Z,992.4
2018-07-06T08:22:59.855Z,992.46
2018-07-06T08:23:59.859Z,992.48
2018-07-06T08:24:59.866Z,992.52
2018-07-06T08:25:59.864Z,992.5
2018-07-06T08:26:59.866Z,992.52
2018-07-06T08:27:59.873Z,992.49
2018-07-06T08:28:59.885Z,992.52
2018-07-06T08:29:59.878Z,992.5
2018-07-06T08:30:59.881Z,992.51
2018-07-06T08:31:59.884Z,992.49
2018-07-06T08:32:59.886Z,992.5
2018-07-06T08:33:59.894Z,992.52
2018-07-06T08:34:59.896Z,992.54
2018-07-06T08:35:59.916Z,992.57
2018-07-06T08:36:59.897Z,992.61
2018-07-06T08:37:59.901Z,992.63
2018-07-06T08:38:59.921Z,992.67
2018-07-06T08:39:59.908Z,992.66
2018-07-06T08:40:59.914Z,992.65
2018-07-06T08:41:59.914Z,992.67
2018-07-06T08:42:59.916Z,992.68
2018-07-06T08:43:59.922Z,992.64
2018-07-06T08:45:00.100Z,992.65
2018-07-06T08:45:59.928Z,992.62
2018-07-06T08:46:59.937Z,992.65
2018-07-06T08:47:59.945Z,992.69
2018-07-06T08:48:59.937Z,992.75
2018-07-06T08:49:59.941Z,992.74
2018-07-06T08:50:59.947Z,992.7
2018-07-06T08:51:59.947Z,992.77
2018-07-06T08:52:59.950Z,992.84
2018-07-06T08:53:59.954Z,992.89
2018-07-06T08:54:59.959Z,992.86
2018-07-06T08:55:59.963Z,992.83
2018-07-06T08:56:59.967Z,992.82
2018-07-06T08:57:59.970Z,992.81
2018-07-06T08:58:59.971Z,992.82
2018-07-06T08:59:59.978Z,992.76
2018-07-06T09:00:59.979Z,992.76
2018-07-06T09:01:59.984Z,992.74
2018-07-06T09:02:59.989Z,992.76
2018-07-06T09:04:00.056Z,992.74
2018-07-06T09:05:00.001Z,992.8
2018-07-06T09:06:00.015Z,992.76
2018-07-06T09:07:00.023Z,992.8
2018-07-06T09:08:00.023Z,992.8
2018-07-06T09:09:00.018Z,992.78
2018-07-06T09:10:00.029Z,992.8
2018-07-06T09:11:00.022Z,992.8
2018-07-06T09:12:00.025Z,992.83
2018-07-06T09:13:00.050Z,992.74
2018-07-06T09:14:00.042Z,992.79
2018-07-06T09:15:00.075Z,992.77
2018-07-06T09:16:00.043Z,992.77
2018-07-06T09:17:00.059Z,992.76
2018-07-06T09:18:00.061Z,992.76
2018-07-06T09:19:00.057Z,992.77
2018-07-06T09:20:00.346Z,992.76
2018-07-06T09:21:00.061Z,992.78
2018-07-06T09:22:00.067Z,992.76
2018-07-06T09:23:00.074Z,992.74
2018-07-06T09:24:00.087Z,992.76
2018-07-06T09:25:00.084Z,992.78
2018-07-06T09:26:00.495Z,992.78
2018-07-06T09:27:00.093Z,992.8
2018-07-06T09:28:00.093Z,992.84
2018-07-06T09:29:00.096Z,992.86
2018-07-06T09:30:00.123Z,992.87
2018-07-06T09:31:00.111Z,992.89
2018-07-06T09:32:00.125Z,992.93
2018-07-06T09:33:00.113Z,992.89
2018-07-06T09:34:00.126Z,992.92
2018-07-06T09:35:00.129Z,992.97
2018-07-06T09:36:00.125Z,992.97
2018-07-06T09:37:00.126Z,993.06
2018-07-06T09:38:00.137Z,993.06
2018-07-06T09:39:00.136Z,993.02
2018-07-06T09:40:00.142Z,993.02
2018-07-06T09:41:00.141Z,992.96
2018-07-06T09:42:00.149Z,992.86
2018-07-06T09:43:00.148Z,992.86
2018-07-06T09:44:00.178Z,992.83
2018-07-06T09:45:00.159Z,992.8
2018-07-06T09:46:00.166Z,992.8
2018-07-06T09:47:00.166Z,992.79
2018-07-06T09:48:00.176Z,992.8
2018-07-06T09:49:00.176Z,992.81
2018-07-06T09:50:00.180Z,992.77
2018-07-06T09:51:00.270Z,992.79
2018-07-06T09:52:00.188Z,992.79
2018-07-06T09:53:00.200Z,992.84
2018-07-06T09:54:00.203Z,992.87
2018-07-06T09:55:00.202Z,992.89
2018-07-06T09:56:00.206Z,992.92
2018-07-06T09:57:00.209Z,992.92
2018-07-06T09:58:00.230Z,992.98
2018-07-06T09:59:00.220Z,992.99
2018-07-06T10:00:00.223Z,992.91
2018-07-06T10:01:00.228Z,992.86
2018-07-06T10:02:00.230Z,992.86
2018-07-06T10:03:00.240Z,992.89
2018-07-06T10:04:00.243Z,992.78
2018-07-06T10:05:00.246Z,992.77
2018-07-06T10:06:00.414Z,992.78
2018-07-06T10:07:00.264Z,992.82
2018-07-06T10:08:00.260Z,992.81
2018-07-06T10:09:00.262Z,992.81
2018-07-06T10:10:00.270Z,992.83
2018-07-06T10:11:00.317Z,992.86
2018-07-06T10:12:00.281Z,992.87
2018-07-06T10:13:00.284Z,992.81
2018-07-06T10:14:00.298Z,992.81
2018-07-06T10:15:00.297Z,992.76
2018-07-06T10:16:00.300Z,992.76
2018-07-06T10:17:00.307Z,992.71
2018-07-06T10:18:00.307Z,992.74
2018-07-06T10:19:00.312Z,992.77
2018-07-06T10:20:00.316Z,992.78
2018-07-06T10:21:00.324Z,992.77
2018-07-06T10:22:00.364Z,992.8
2018-07-06T10:23:00.334Z,992.84
2018-07-06T10:54:34.414Z,992.81
2018-07-06T10:55:34.394Z,992.78
2018-07-06T10:56:34.395Z,992.78
2018-07-06T10:57:34.407Z,992.86
2018-07-06T10:58:34.413Z,992.91
2018-07-06T10:59:34.402Z,992.97
2018-07-06T11:00:34.406Z,993.03
2018-07-06T11:01:34.408Z,992.92
2018-07-06T11:02:34.415Z,992.86
2018-07-06T11:03:34.417Z,992.85
2018-07-06T11:04:34.440Z,992.87
2018-07-06T11:05:34.427Z,992.81
2018-07-06T11:06:34.428Z,992.79
2018-07-06T11:07:34.439Z,992.83
2018-07-06T11:08:34.451Z,992.85
2018-07-06T11:09:34.460Z,992.84
2018-07-06T11:10:34.449Z,992.85
2018-07-06T11:11:34.525Z,992.85
2018-07-06T11:12:34.461Z,992.88
2018-07-06T11:13:34.463Z,992.91
2018-07-06T11:14:34.467Z,992.88
2018-07-06T11:15:34.471Z,992.83
2018-07-06T11:16:34.476Z,992.84
2018-07-06T11:17:34.481Z,992.83
2018-07-06T11:18:34.497Z,992.8
2018-07-06T11:19:34.488Z,992.84
2018-07-06T11:20:34.496Z,992.81
2018-07-06T11:21:34.500Z,992.82
2018-07-06T11:22:34.514Z,992.82
2018-07-06T11:23:34.528Z,992.85
2018-07-06T11:24:34.516Z,992.86
2018-07-06T11:25:34.518Z,992.9
2018-07-06T11:26:34.532Z,992.79
2018-07-06T11:27:34.527Z,992.8
2018-07-06T11:28:34.531Z,992.84
2018-07-06T11:29:34.536Z,992.76
2018-07-06T11:30:34.537Z,992.81
2018-07-06T11:31:34.546Z,992.74
2018-07-06T11:32:34.555Z,992.89
2018-07-06T11:33:34.550Z,992.88
2018-07-06T11:34:34.557Z,992.89
2018-07-06T11:35:34.559Z,992.92
2018-07-06T11:36:34.565Z,992.91
2018-07-06T11:37:34.567Z,992.99
2018-07-06T11:38:34.573Z,992.95
2018-07-06T11:39:34.578Z,992.9
2018-07-06T11:40:34.581Z,992.87
2018-07-06T11:41:34.580Z,992.9
2018-07-06T11:42:34.612Z,992.93
2018-07-06T11:43:34.589Z,992.97
2018-07-06T11:44:34.591Z,992.96
2018-07-06T11:45:34.595Z,992.96
2018-07-06T11:46:34.599Z,993.02
2018-07-06T11:47:34.599Z,993.02
2018-07-06T11:48:34.605Z,993.08
2018-07-06T11:49:34.610Z,993.09
2018-07-06T11:50:34.622Z,993.07
2018-07-06T11:51:34.616Z,993.11
2018-07-06T11:52:34.619Z,993.08
2018-07-06T11:53:34.624Z,993.17
2018-07-06T11:54:34.628Z,993.13
2018-07-06T11:55:34.630Z,993.11
2018-07-06T11:56:34.646Z,993.19
2018-07-06T11:57:34.639Z,993.24
2018-07-06T11:58:34.641Z,993.3
2018-07-06T11:59:34.646Z,993.3
2018-07-06T12:00:34.649Z,993.27
2018-07-06T12:01:34.652Z,993.21
2018-07-06T12:02:34.660Z,993.15
2018-07-06T12:03:34.665Z,993.15
2018-07-06T12:04:34.685Z,993.08
2018-07-06T12:05:34.670Z,993.06
2018-07-06T12:06:34.677Z,993.01
2018-07-06T12:07:34.675Z,992.98
2018-07-06T12:08:34.684Z,993.03
2018-07-06T12:09:34.689Z,993.02
2018-07-06T12:10:34.693Z,993.11
2018-07-06T12:11:34.705Z,993.14
2018-07-06T12:12:34.705Z,993.18
2018-07-06T12:13:34.709Z,993.32
2018-07-06T12:14:34.705Z,993.39
2018-07-06T12:15:34.741Z,993.42
2018-07-06T12:16:34.717Z,993.46
2018-07-06T12:17:34.717Z,993.36
2018-07-06T12:18:34.721Z,993.4
2018-07-06T12:19:34.728Z,993.41
2018-07-06T12:20:34.733Z,993.5
2018-07-06T12:21:34.734Z,993.46
2018-07-06T12:22:34.735Z,993.42
2018-07-06T12:23:34.740Z,993.36
2018-07-06T12:24:34.749Z,993.29
2018-07-06T12:25:34.743Z,993.19
2018-07-06T12:26:34.747Z,993.14
2018-07-06T12:27:34.752Z,993.08
2018-07-06T12:28:34.753Z,993.03
2018-07-06T12:29:34.758Z,993.03
2018-07-06T12:30:34.761Z,992.96
2018-07-06T12:31:34.769Z,993.04
2018-07-06T12:32:34.766Z,993.04
2018-07-06T12:33:34.773Z,993.09
2018-07-06T12:34:35.572Z,993.07
2018-07-06T12:35:34.778Z,993.12
2018-07-06T12:36:34.780Z,993.13
2018-07-06T12:37:34.787Z,993.18
2018-07-06T12:38:34.782Z,993.19
2018-07-06T12:39:34.796Z,993.15
2018-07-06T12:40:34.789Z,993.16
2018-07-06T12:41:34.823Z,993.11
2018-07-06T12:42:34.794Z,993.1
2018-07-06T12:43:34.794Z,993.1
2018-07-06T12:44:34.798Z,993.1
2018-07-06T12:45:34.804Z,993.05
2018-07-06T12:46:34.808Z,993.02
2018-07-06T12:47:34.808Z,992.99
2018-07-06T12:48:34.815Z,993.01
2018-07-06T12:49:34.814Z,992.96
2018-07-06T12:50:34.837Z,992.98
2018-07-06T12:51:34.824Z,992.93
2018-07-06T12:52:34.825Z,992.93
2018-07-06T12:53:34.826Z,992.92
2018-07-06T12:54:34.830Z,992.93
2018-07-06T12:55:34.833Z,992.9
2018-07-06T12:56:34.840Z,992.93
2018-07-06T12:57:34.904Z,992.88
2018-07-06T12:58:34.929Z,992.9
2018-07-06T12:59:34.851Z,992.86
2018-07-06T13:00:34.862Z,992.87
2018-07-06T13:01:34.860Z,992.84
2018-07-06T13:02:34.863Z,992.8
2018-07-06T13:03:34.867Z,992.83